createdAt,value
2023-08-24T00:01:27.518Z,19.86
2023-08-24T00:03:53.862Z,19.66
2023-08-24T00:06:20.352Z,19.83
2023-08-24T00:08:46.519Z,19.82
2023-08-24T00:11:15.280Z,19.83
2023-08-24T00:13:46.882Z,19.67
2023-08-24T00:16:13.418Z,19.73
2023-08-24T00:18:39.672Z,19.72
2023-08-24T00:21:08.085Z,19.78
2023-08-24T00:23:34.375Z,19.81
2023-08-24T00:26:00.860Z,19.57
2023-08-24T00:28:27.057Z,19.66
2023-08-24T00:30:54.016Z,19.73
2023-08-24T00:33:20.253Z,19.90
2023-08-24T00:35:46.945Z,19.73
2023-08-24T00:38:13.093Z,19.73
2023-08-24T00:40:42.470Z,19.73
2023-08-24T00:43:08.645Z,19.76
2023-08-24T00:45:36.091Z,19.75
2023-08-24T00:48:02.738Z,19.67
2023-08-24T00:50:29.478Z,19.75
2023-08-24T00:52:56.305Z,19.70
2023-08-24T00:55:22.927Z,19.69
2023-08-24T00:57:50.334Z,19.66
2023-08-24T01:00:17.337Z,19.66
2023-08-24T01:02:43.672Z,19.66
2023-08-24T01:05:10.803Z,19.69
2023-08-24T01:07:39.909Z,19.67
2023-08-24T01:10:09.609Z,19.63
2023-08-24T01:12:48.288Z,19.57
2023-08-24T01:15:37.280Z,19.54
2023-08-24T01:18:06.620Z,19.56
2023-08-24T01:20:35.682Z,19.59
2023-08-24T01:23:09.308Z,19.54
2023-08-24T01:25:49.142Z,19.48
2023-08-24T01:28:16.528Z,19.44
2023-08-24T01:30:43.615Z,19.44
2023-08-24T01:33:12.329Z,19.37
2023-08-24T01:35:39.217Z,19.27
2023-08-24T01:38:06.913Z,19.24
2023-08-24T01:40:56.182Z,19.24
2023-08-24T01:43:42.535Z,19.14
2023-08-24T01:46:15.176Z,19.13
2023-08-24T01:48:42.415Z,19.05
2023-08-24T01:51:10.651Z,18.95
2023-08-24T01:53:38.603Z,18.92
2023-08-24T01:56:16.175Z,18.92
2023-08-24T01:58:42.639Z,18.84
2023-08-24T02:01:10.686Z,18.89
2023-08-24T02:03:39.299Z,18.78
2023-08-24T02:06:07.310Z,18.74
2023-08-24T02:08:33.838Z,18.86
2023-08-24T02:11:00.362Z,18.80
2023-08-24T02:13:26.723Z,18.80
2023-08-24T02:16:06.688Z,18.78
2023-08-24T02:18:34.008Z,18.74
2023-08-24T02:21:00.602Z,18.73
2023-08-24T02:23:26.818Z,18.72
2023-08-24T02:25:57.039Z,18.67
2023-08-24T02:28:23.353Z,18.59
2023-08-24T02:30:49.836Z,18.60
2023-08-24T02:33:17.674Z,18.60
2023-08-24T02:35:45.243Z,18.57
2023-08-24T02:38:12.132Z,18.64
2023-08-24T02:40:39.122Z,18.51
2023-08-24T02:43:05.378Z,18.44
2023-08-24T02:45:31.880Z,18.43
2023-08-24T02:47:58.048Z,18.40
2023-08-24T02:50:24.559Z,18.39
2023-08-24T02:52:51.942Z,18.44
2023-08-24T02:55:18.616Z,18.30
2023-08-24T02:57:45.178Z,18.33
2023-08-24T03:00:14.041Z,18.30
2023-08-24T03:02:40.229Z,18.22
2023-08-24T03:05:08.723Z,18.26
2023-08-24T03:07:34.978Z,18.22
2023-08-24T03:10:01.660Z,18.14
2023-08-24T03:12:27.929Z,18.16
2023-08-24T03:14:54.925Z,18.10
2023-08-24T03:17:22.038Z,18.08
2023-08-24T03:19:48.622Z,18.14
2023-08-24T03:22:14.783Z,18.11
2023-08-24T03:24:41.300Z,18.09
2023-08-24T03:27:08.743Z,18.13
2023-08-24T03:29:35.385Z,18.16
2023-08-24T03:32:01.620Z,18.10
2023-08-24T03:34:30.160Z,18.12
2023-08-24T03:36:56.717Z,18.17
2023-08-24T03:39:23.231Z,18.17
2023-08-24T03:41:49.456Z,18.20
2023-08-24T03:44:15.934Z,18.09
2023-08-24T03:46:42.184Z,18.09
2023-08-24T03:49:08.985Z,17.84
2023-08-24T03:51:35.169Z,17.80
2023-08-24T03:54:03.573Z,17.85
2023-08-24T03:56:35.985Z,17.86
2023-08-24T03:59:03.120Z,17.92
2023-08-24T04:01:29.426Z,17.99
2023-08-24T04:03:56.085Z,17.96
2023-08-24T04:06:22.322Z,18.02
2023-08-24T04:08:48.820Z,18.04
2023-08-24T04:11:15.009Z,18.06
2023-08-24T04:13:41.536Z,18.10
2023-08-24T04:16:07.826Z,18.09
2023-08-24T04:18:34.758Z,18.17
2023-08-24T04:21:00.949Z,18.21
2023-08-24T04:23:28.316Z,18.21
2023-08-24T04:25:55.323Z,18.29
2023-08-24T04:28:21.741Z,18.35
2023-08-24T04:30:56.480Z,18.43
2023-08-24T04:33:23.256Z,18.55
2023-08-24T04:35:50.525Z,18.56
2023-08-24T04:38:17.162Z,18.71
2023-08-24T04:40:52.047Z,18.77
2023-08-24T04:43:19.874Z,18.90
2023-08-24T04:45:51.604Z,18.99
2023-08-24T04:48:18.442Z,19.08
2023-08-24T04:50:47.514Z,19.14
2023-08-24T04:53:16.379Z,19.16
2023-08-24T04:55:43.207Z,19.41
2023-08-24T04:58:10.285Z,19.53
2023-08-24T05:00:39.828Z,19.69
2023-08-24T05:03:07.584Z,19.68
2023-08-24T05:05:34.623Z,19.72
2023-08-24T05:08:02.386Z,19.47
2023-08-24T05:10:33.687Z,19.66
2023-08-24T05:13:00.446Z,19.33
2023-08-24T05:15:27.155Z,19.42
2023-08-24T05:17:56.765Z,19.51
2023-08-24T05:20:23.420Z,19.89
2023-08-24T05:22:49.549Z,20.19
2023-08-24T05:25:19.118Z,20.02
2023-08-24T05:27:45.329Z,20.41
2023-08-24T05:30:12.203Z,20.55
2023-08-24T05:32:39.128Z,20.43
2023-08-24T05:35:07.151Z,20.28
2023-08-24T05:37:34.339Z,20.14
2023-08-24T05:40:04.741Z,20.22
2023-08-24T05:42:31.908Z,20.32
2023-08-24T05:44:58.738Z,20.35
2023-08-24T05:47:25.196Z,20.27
2023-08-24T05:49:51.709Z,20.32
2023-08-24T05:52:17.849Z,20.32
2023-08-24T05:54:44.387Z,20.40
2023-08-24T05:57:10.611Z,20.49
2023-08-24T05:59:37.212Z,20.66
2023-08-24T06:02:03.801Z,20.85
2023-08-24T06:04:31.462Z,21.19
2023-08-24T06:06:57.803Z,21.36
2023-08-24T06:09:24.338Z,21.43
2023-08-24T06:11:50.666Z,21.60
2023-08-24T06:14:17.740Z,21.47
2023-08-24T06:16:45.412Z,21.51
2023-08-24T06:19:13.163Z,21.64
2023-08-24T06:21:40.186Z,21.69
2023-08-24T06:24:06.992Z,22.54
2023-08-24T06:26:33.487Z,24.24
2023-08-24T06:29:00.104Z,23.82
2023-08-24T06:31:26.650Z,23.31
2023-08-24T06:33:53.456Z,23.21
2023-08-24T06:36:19.973Z,23.86
2023-08-24T06:38:46.848Z,24.77
2023-08-24T06:41:13.569Z,24.58
2023-08-24T06:43:40.620Z,24.31
2023-08-24T06:46:09.971Z,23.91
2023-08-24T06:48:37.913Z,24.12
2023-08-24T06:51:29.829Z,23.90
2023-08-24T06:54:21.564Z,24.01
2023-08-24T06:56:47.783Z,27.28
2023-08-24T06:59:14.393Z,30.09
2023-08-24T07:01:41.315Z,31.71
2023-08-24T07:04:07.946Z,33.04
2023-08-24T07:06:35.129Z,33.77
2023-08-24T07:09:06.925Z,33.63
2023-08-24T07:11:33.606Z,33.44
2023-08-24T07:14:00.588Z,33.91
2023-08-24T07:16:26.983Z,34.36
2023-08-24T07:18:53.864Z,34.41
2023-08-24T07:21:20.401Z,34.18
2023-08-24T07:23:47.170Z,33.47
2023-08-24T07:26:13.394Z,32.09
2023-08-24T07:28:40.023Z,32.19
2023-08-24T07:31:14.171Z,32.14
2023-08-24T07:33:45.756Z,31.83
2023-08-24T07:36:12.098Z,30.72
2023-08-24T07:38:38.554Z,30.46
2023-08-24T07:41:08.837Z,29.93
2023-08-24T07:43:35.475Z,29.49
2023-08-24T07:46:02.484Z,29.93
2023-08-24T07:48:30.297Z,29.28
2023-08-24T07:50:57.085Z,29.56
2023-08-24T07:53:23.740Z,29.75
2023-08-24T07:55:50.130Z,29.10
2023-08-24T07:58:16.681Z,28.09
2023-08-24T08:00:43.450Z,28.55
2023-08-24T08:03:10.049Z,28.74
2023-08-24T08:05:36.630Z,28.64
2023-08-24T08:08:05.085Z,28.43
2023-08-24T08:10:31.301Z,28.30
2023-08-24T08:12:57.792Z,28.36
2023-08-24T08:15:24.636Z,27.60
2023-08-24T08:17:53.266Z,27.99
2023-08-24T08:20:19.725Z,27.67
2023-08-24T08:22:46.504Z,27.57
2023-08-24T08:25:12.827Z,27.56
2023-08-24T08:27:39.551Z,27.50
2023-08-24T08:30:06.546Z,27.35
2023-08-24T08:32:33.525Z,27.32
2023-08-24T08:35:01.820Z,27.16
2023-08-24T08:37:28.755Z,27.30
2023-08-24T08:39:55.754Z,27.46
2023-08-24T08:42:22.653Z,27.49
2023-08-24T08:44:51.134Z,27.42
2023-08-24T08:47:19.261Z,27.47
2023-08-24T08:49:48.430Z,27.44
2023-08-24T08:52:14.890Z,27.33
2023-08-24T08:54:41.521Z,27.38
2023-08-24T08:57:08.129Z,27.31
2023-08-24T08:59:35.858Z,27.15
2023-08-24T09:02:04.728Z,27.16
2023-08-24T09:04:33.027Z,27.49
2023-08-24T09:07:01.592Z,27.34
2023-08-24T09:09:28.796Z,27.50
2023-08-24T09:11:55.768Z,27.58
2023-08-24T09:14:22.246Z,27.61
2023-08-24T09:16:49.954Z,27.62
2023-08-24T09:19:16.451Z,27.47
2023-08-24T09:21:42.712Z,27.19
2023-08-24T09:24:11.049Z,27.50
2023-08-24T09:26:43.076Z,27.62
2023-08-24T09:29:16.953Z,27.56
2023-08-24T09:31:46.932Z,27.63
2023-08-24T09:34:13.648Z,27.68
2023-08-24T09:36:40.176Z,27.79
2023-08-24T09:39:09.175Z,27.87
2023-08-24T09:41:46.406Z,27.77
2023-08-24T09:44:13.458Z,27.94
2023-08-24T09:46:41.273Z,28.20
2023-08-24T09:49:09.638Z,28.25
2023-08-24T09:51:37.307Z,28.48
2023-08-24T09:54:09.366Z,28.52
2023-08-24T09:56:41.470Z,28.61
2023-08-24T09:59:13.852Z,28.55
2023-08-24T10:01:48.943Z,28.47
2023-08-24T10:04:21.387Z,28.35
2023-08-24T10:06:54.162Z,28.45
2023-08-24T10:09:31.645Z,28.68
2023-08-24T10:12:02.567Z,28.53
2023-08-24T10:14:41.463Z,28.79
2023-08-24T10:17:12.264Z,28.88
2023-08-24T10:19:41.025Z,28.78
2023-08-24T10:22:08.339Z,28.79
2023-08-24T10:24:35.929Z,28.88
2023-08-24T10:27:04.020Z,28.87
2023-08-24T10:29:30.682Z,29.03
2023-08-24T10:31:57.926Z,28.94
2023-08-24T10:34:24.607Z,28.88
2023-08-24T10:36:52.086Z,28.51
2023-08-24T10:39:20.629Z,28.56
2023-08-24T10:41:48.391Z,28.67
2023-08-24T10:44:44.912Z,28.44
2023-08-24T10:47:29.568Z,28.58
2023-08-24T10:49:56.256Z,28.51
2023-08-24T10:52:44.179Z,28.68
2023-08-24T10:55:32.058Z,28.92
2023-08-24T10:58:00.219Z,28.91
2023-08-24T11:00:28.554Z,28.39
2023-08-24T11:02:58.984Z,28.64
2023-08-24T11:05:32.910Z,28.59
2023-08-24T11:08:03.973Z,28.64
2023-08-24T11:10:43.038Z,28.76
2023-08-24T11:13:11.260Z,28.86
2023-08-24T11:15:40.617Z,29.19
2023-08-24T11:18:19.036Z,28.90
2023-08-24T11:20:46.888Z,28.93
2023-08-24T11:23:15.642Z,28.99
2023-08-24T11:25:42.323Z,29.41
2023-08-24T11:28:08.643Z,29.33
2023-08-24T11:30:35.871Z,29.28
2023-08-24T11:33:03.849Z,29.72
2023-08-24T11:35:37.205Z,29.76
2023-08-24T11:38:04.306Z,29.63
2023-08-24T11:40:31.166Z,29.09
2023-08-24T11:42:57.902Z,28.85
2023-08-24T11:45:29.865Z,29.09
2023-08-24T11:47:56.694Z,28.85
2023-08-24T11:50:23.844Z,28.85
2023-08-24T11:52:50.359Z,29.30
2023-08-24T11:55:17.012Z,29.31
2023-08-24T11:57:43.475Z,29.30
2023-08-24T12:00:14.158Z,29.05
2023-08-24T12:02:44.007Z,29.05
2023-08-24T12:05:26.836Z,29.24
2023-08-24T12:07:54.697Z,29.56
2023-08-24T12:10:21.759Z,30.03
2023-08-24T12:12:49.373Z,29.96
2023-08-24T12:15:20.793Z,29.47
2023-08-24T12:17:48.623Z,29.79
2023-08-24T12:20:20.510Z,29.82
2023-08-24T12:22:54.221Z,29.70
2023-08-24T12:25:25.674Z,30.01
2023-08-24T12:27:53.028Z,30.07
2023-08-24T12:30:20.336Z,30.16
2023-08-24T12:32:48.495Z,30.33
2023-08-24T12:35:15.451Z,30.60
2023-08-24T12:37:42.346Z,30.61
2023-08-24T12:40:09.144Z,30.35
2023-08-24T12:42:37.186Z,30.26
2023-08-24T12:45:05.470Z,30.24
2023-08-24T12:47:31.978Z,30.15
2023-08-24T12:49:59.005Z,30.04
2023-08-24T12:52:25.344Z,30.03
2023-08-24T12:54:52.001Z,29.69
2023-08-24T12:57:18.669Z,29.95
2023-08-24T12:59:46.873Z,30.05
2023-08-24T13:02:24.887Z,30.06
2023-08-24T13:04:56.240Z,30.44
2023-08-24T13:07:22.721Z,30.69
2023-08-24T13:09:49.413Z,30.74
2023-08-24T13:12:15.784Z,30.71
2023-08-24T13:14:42.436Z,30.71
2023-08-24T13:17:08.739Z,30.68
2023-08-24T13:19:35.559Z,30.89
2023-08-24T13:22:02.089Z,31.06
2023-08-24T13:24:28.758Z,31.13
2023-08-24T13:26:55.101Z,31.28
2023-08-24T13:29:21.581Z,31.08
2023-08-24T13:31:47.771Z,30.81
2023-08-24T13:34:14.270Z,30.70
2023-08-24T13:36:40.503Z,30.50
2023-08-24T13:39:06.984Z,30.10
2023-08-24T13:41:33.222Z,30.04
2023-08-24T13:43:59.680Z,29.88
2023-08-24T13:46:25.983Z,30.03
2023-08-24T13:48:52.505Z,29.92
2023-08-24T13:51:19.181Z,30.03
2023-08-24T13:53:45.721Z,30.05
2023-08-24T13:56:11.924Z,29.83
2023-08-24T13:58:38.578Z,29.96
2023-08-24T14:01:04.831Z,30.38
2023-08-24T14:03:31.380Z,30.30
2023-08-24T14:05:58.319Z,30.24
2023-08-24T14:08:25.183Z,30.33
2023-08-24T14:10:53.075Z,30.27
2023-08-24T14:13:20.677Z,30.34
2023-08-24T14:15:50.163Z,30.19
2023-08-24T14:18:28.932Z,30.07
2023-08-24T14:21:42.028Z,29.96
2023-08-24T14:25:35.255Z,29.61
2023-08-24T16:41:48.165Z,28.11
2023-08-24T16:44:15.436Z,28.10
2023-08-24T16:46:41.694Z,27.82
2023-08-24T16:49:08.286Z,27.83
2023-08-24T16:51:35.466Z,27.50
2023-08-24T16:54:02.160Z,27.46
2023-08-24T16:56:28.413Z,27.58
2023-08-24T16:58:55.018Z,27.48
2023-08-24T17:01:21.344Z,27.44
2023-08-24T17:03:48.031Z,27.09
2023-08-24T17:06:14.368Z,27.04
2023-08-24T17:08:41.062Z,27.08
2023-08-24T17:11:07.294Z,27.04
2023-08-24T17:13:33.757Z,26.99
2023-08-24T17:16:00.014Z,26.89
2023-08-24T17:18:26.750Z,26.81
2023-08-24T17:20:53.003Z,26.59
2023-08-24T17:23:19.536Z,26.53
2023-08-24T17:25:46.872Z,26.46
2023-08-24T17:28:13.855Z,26.43
2023-08-24T17:30:50.585Z,26.34
2023-08-24T17:33:17.815Z,26.27
2023-08-24T17:35:44.226Z,26.20
2023-08-24T17:38:10.877Z,26.15
2023-08-24T17:40:37.122Z,26.06
2023-08-24T17:43:05.577Z,25.93
2023-08-24T17:45:31.861Z,25.78
2023-08-24T17:47:58.774Z,25.64
2023-08-24T17:50:25.197Z,25.45
2023-08-24T17:52:51.933Z,25.22
2023-08-24T17:55:18.263Z,25.21
2023-08-24T17:57:44.810Z,25.14
2023-08-24T18:00:11.567Z,25.29
2023-08-24T18:02:39.959Z,24.98
2023-08-24T18:05:06.899Z,25.04
2023-08-24T18:07:33.759Z,24.93
2023-08-24T18:10:00.082Z,24.76
2023-08-24T18:12:27.171Z,24.61
2023-08-24T18:14:53.528Z,24.52
2023-08-24T18:17:20.507Z,24.40
2023-08-24T18:19:46.898Z,24.52
2023-08-24T18:22:13.770Z,24.18
2023-08-24T18:24:40.293Z,23.96
2023-08-24T18:27:07.594Z,23.95
2023-08-24T18:29:36.662Z,23.97
2023-08-24T18:32:03.706Z,23.85
2023-08-24T18:34:30.232Z,23.69
2023-08-24T18:36:57.418Z,23.61
2023-08-24T18:39:24.179Z,23.66
2023-08-24T18:41:51.305Z,23.59
2023-08-24T18:44:18.504Z,23.55
2023-08-24T18:46:47.465Z,23.35
2023-08-24T18:49:16.219Z,23.34
2023-08-24T18:51:42.942Z,23.38
2023-08-24T18:54:09.467Z,23.37
2023-08-24T18:56:36.138Z,23.48
2023-08-24T18:59:02.817Z,23.48
2023-08-24T19:01:32.373Z,23.45
2023-08-24T19:03:58.964Z,23.46
2023-08-24T19:06:35.337Z,23.51
2023-08-24T19:09:08.338Z,23.24
2023-08-24T19:11:35.979Z,22.96
2023-08-24T19:14:02.851Z,23.10
2023-08-24T19:16:29.788Z,23.07
2023-08-24T19:18:58.435Z,23.10
2023-08-24T19:21:27.295Z,22.92
2023-08-24T19:23:54.540Z,22.97
2023-08-24T19:26:21.723Z,23.00
2023-08-24T19:28:52.246Z,22.99
2023-08-24T19:31:18.903Z,23.00
2023-08-24T19:33:46.039Z,22.88
2023-08-24T19:36:15.609Z,22.78
2023-08-24T19:38:42.091Z,22.67
2023-08-24T19:41:14.652Z,22.67
2023-08-24T19:43:41.395Z,22.57
2023-08-24T19:46:08.424Z,22.52
2023-08-24T19:48:35.926Z,22.48
2023-08-24T19:51:02.549Z,22.43
2023-08-24T19:53:29.181Z,22.51
2023-08-24T19:55:56.107Z,22.70
2023-08-24T19:58:22.834Z,22.23
2023-08-24T20:00:56.274Z,22.13
2023-08-24T20:03:23.177Z,22.17
2023-08-24T20:05:55.039Z,22.15
2023-08-24T20:08:22.629Z,22.11
2023-08-24T20:10:51.922Z,22.06
2023-08-24T20:13:20.971Z,21.97
2023-08-24T20:15:48.243Z,21.96
2023-08-24T20:18:15.642Z,21.94
2023-08-24T20:20:42.464Z,21.93
2023-08-24T20:23:08.894Z,21.92
2023-08-24T20:25:35.993Z,21.79
2023-08-24T20:28:04.657Z,21.82
2023-08-24T20:30:31.540Z,21.81
2023-08-24T20:32:57.965Z,21.85
2023-08-24T20:35:24.631Z,21.86
2023-08-24T20:37:51.582Z,21.81
2023-08-24T20:40:18.720Z,21.75
2023-08-24T20:42:45.307Z,21.55
2023-08-24T20:45:12.732Z,21.63
2023-08-24T20:47:39.284Z,21.61
2023-08-24T20:50:08.319Z,21.43
2023-08-24T20:52:34.734Z,21.49
2023-08-24T20:55:01.529Z,21.32
2023-08-24T20:57:28.059Z,21.25
2023-08-24T20:59:56.381Z,21.30
2023-08-24T21:02:23.606Z,21.29
2023-08-24T21:04:51.456Z,21.28
2023-08-24T21:07:18.058Z,21.34
2023-08-24T21:09:45.050Z,21.33
2023-08-24T21:12:11.837Z,21.33
2023-08-24T21:14:39.095Z,21.38
2023-08-24T21:17:05.516Z,21.41
2023-08-24T21:19:32.596Z,21.26
2023-08-24T21:21:59.244Z,21.28
2023-08-24T21:24:25.953Z,21.36
2023-08-24T21:26:52.368Z,21.49
2023-08-24T21:29:19.328Z,21.61
2023-08-24T21:31:45.785Z,21.47
2023-08-24T21:34:12.782Z,21.45
2023-08-24T21:36:39.415Z,21.51
2023-08-24T21:39:09.718Z,21.54
2023-08-24T21:41:36.165Z,21.53
2023-08-24T21:44:04.741Z,21.62
2023-08-24T21:46:31.369Z,21.70
2023-08-24T21:48:58.322Z,21.70
2023-08-24T21:51:24.660Z,21.81
2023-08-24T21:53:51.109Z,21.92
2023-08-24T21:56:17.387Z,21.93
2023-08-24T21:58:43.852Z,22.05
2023-08-24T22:01:11.097Z,22.03
2023-08-24T22:03:37.920Z,21.99
2023-08-24T22:06:04.500Z,21.95
2023-08-24T22:08:31.109Z,21.97
2023-08-24T22:10:57.693Z,21.98
2023-08-24T22:13:26.068Z,21.92
2023-08-24T22:15:53.452Z,21.98
2023-08-24T22:18:20.846Z,21.95
2023-08-24T22:20:47.617Z,21.93
2023-08-24T22:23:14.300Z,21.85
2023-08-24T22:25:40.990Z,21.81
2023-08-24T22:28:08.394Z,21.78
2023-08-24T22:30:34.759Z,21.82
2023-08-24T22:33:01.751Z,21.82
2023-08-24T22:35:32.062Z,21.80
2023-08-24T22:38:00.277Z,21.82
2023-08-24T22:40:27.390Z,21.82
2023-08-24T22:43:03.126Z,21.85
2023-08-24T22:45:40.626Z,21.93
2023-08-24T22:48:11.244Z,21.98
2023-08-24T22:50:37.676Z,21.95
2023-08-24T22:53:05.925Z,21.97
2023-08-24T22:55:36.292Z,21.98
2023-08-24T22:58:03.577Z,21.99
2023-08-24T23:00:29.991Z,22.02
2023-08-24T23:02:56.567Z,21.99
2023-08-24T23:05:23.083Z,22.03
2023-08-24T23:07:49.717Z,22.06
2023-08-24T23:10:17.290Z,22.04
2023-08-24T23:12:43.892Z,22.08
2023-08-24T23:15:12.562Z,22.10
2023-08-24T23:17:39.466Z,21.96
2023-08-24T23:20:07.690Z,21.94
2023-08-24T23:22:34.398Z,21.91
2023-08-24T23:25:00.615Z,21.93
2023-08-24T23:27:27.073Z,21.86
2023-08-24T23:29:56.996Z,21.79
2023-08-24T23:32:23.525Z,21.77
2023-08-24T23:34:49.730Z,21.79
2023-08-24T23:37:16.304Z,21.74
2023-08-24T23:39:42.548Z,21.69
2023-08-24T23:42:09.020Z,21.53
2023-08-24T23:44:35.230Z,21.58
2023-08-24T23:47:01.796Z,21.54
2023-08-24T23:49:28.070Z,21.53
2023-08-24T23:51:54.547Z,21.55
2023-08-24T23:54:23.534Z,21.43
2023-08-24T23:56:50.143Z,21.46
2023-08-24T23:59:18.485Z,21.52
